createdAt,value
2022-07-29T00:02:27.789Z,2.97
2022-07-29T00:04:54.833Z,2.17
2022-07-29T00:07:21.888Z,2.33
2022-07-29T00:09:51.733Z,2.25
2022-07-29T00:12:26.481Z,2.30
2022-07-29T00:14:57.862Z,2.03
2022-07-29T00:17:25.613Z,2.35
2022-07-29T00:19:52.891Z,2.20
2022-07-29T00:22:21.332Z,2.42
2022-07-29T00:24:49.808Z,2.10
2022-07-29T00:27:16.967Z,2.13
2022-07-29T00:29:43.853Z,2.78
2022-07-29T00:32:10.911Z,2.88
2022-07-29T00:34:56.152Z,2.20
2022-07-29T00:37:23.098Z,2.00
2022-07-29T00:39:50.124Z,2.70
2022-07-29T00:42:17.593Z,2.55
2022-07-29T00:44:44.960Z,2.55
2022-07-29T00:47:12.982Z,2.67
2022-07-29T00:49:43.460Z,2.28
2022-07-29T00:52:12.061Z,2.95
2022-07-29T00:54:44.826Z,2.40
2022-07-29T00:57:12.618Z,2.60
2022-07-29T00:59:39.667Z,2.40
2022-07-29T01:02:06.690Z,2.42
2022-07-29T01:04:34.071Z,2.28
2022-07-29T01:07:05.059Z,1.95
2022-07-29T01:09:46.883Z,2.25
2022-07-29T01:12:22.436Z,2.35
2022-07-29T01:17:27.804Z,2.10
2022-07-29T01:20:08.280Z,2.42
2022-07-29T01:22:38.185Z,2.20
2022-07-29T01:25:20.868Z,2.38
2022-07-29T01:28:14.850Z,2.72
2022-07-29T01:30:45.556Z,2.55
2022-07-29T01:33:36.324Z,2.47
2022-07-29T01:36:14.106Z,2.60
2022-07-29T01:38:43.899Z,2.47
2022-07-29T01:41:17.443Z,2.80
2022-07-29T01:43:57.240Z,2.35
2022-07-29T01:46:36.877Z,2.40
2022-07-29T01:49:12.353Z,2.75
2022-07-29T01:51:59.865Z,2.30
2022-07-29T01:54:47.704Z,3.40
2022-07-29T01:57:18.683Z,2.60
2022-07-29T01:59:47.445Z,2.90
2022-07-29T02:02:17.825Z,2.85
2022-07-29T02:04:49.516Z,2.83
2022-07-29T02:07:26.314Z,2.70
2022-07-29T02:09:54.780Z,2.75
2022-07-29T02:12:22.911Z,2.60
2022-07-29T02:14:53.824Z,2.70
2022-07-29T02:17:32.221Z,2.60
2022-07-29T02:20:02.637Z,2.50
2022-07-29T02:22:34.677Z,2.83
2022-07-29T02:25:03.767Z,2.90
2022-07-29T02:27:32.325Z,2.88
2022-07-29T02:30:01.551Z,3.00
2022-07-29T02:32:29.625Z,2.85
2022-07-29T02:34:57.679Z,2.88
2022-07-29T02:37:25.853Z,2.67
2022-07-29T02:39:54.879Z,2.92
2022-07-29T02:42:25.066Z,3.05
2022-07-29T02:44:52.552Z,3.20
2022-07-29T02:47:31.596Z,2.92
2022-07-29T02:50:24.880Z,3.08
2022-07-29T02:52:58.139Z,3.10
2022-07-29T02:55:33.143Z,2.90
2022-07-29T02:58:23.927Z,2.92
2022-07-29T03:00:52.808Z,2.60
2022-07-29T03:03:22.295Z,3.42
2022-07-29T03:05:49.403Z,2.78
2022-07-29T03:08:17.369Z,3.13
2022-07-29T03:10:46.649Z,2.63
2022-07-29T03:13:14.295Z,3.15
2022-07-29T03:15:43.232Z,2.70
2022-07-29T03:18:10.823Z,3.08
2022-07-29T03:20:39.687Z,3.28
2022-07-29T03:23:07.533Z,3.13
2022-07-29T03:25:34.448Z,3.38
2022-07-29T03:28:01.279Z,3.38
2022-07-29T03:30:28.957Z,3.10
2022-07-29T03:32:56.658Z,3.30
2022-07-29T03:35:25.839Z,3.58
2022-07-29T03:37:52.839Z,3.40
2022-07-29T03:40:26.959Z,3.28
2022-07-29T03:42:56.293Z,3.22
2022-07-29T03:45:24.854Z,3.63
2022-07-29T03:48:00.675Z,3.20
2022-07-29T03:50:29.612Z,3.15
2022-07-29T03:52:56.733Z,3.67
2022-07-29T03:55:24.479Z,3.47
2022-07-29T03:57:52.344Z,3.28
2022-07-29T04:00:20.542Z,3.50
2022-07-29T04:02:49.952Z,3.20
2022-07-29T04:05:18.089Z,3.53
2022-07-29T04:07:46.286Z,3.67
2022-07-29T04:10:13.351Z,3.47
2022-07-29T04:12:40.274Z,3.63
2022-07-29T04:15:07.854Z,3.60
2022-07-29T04:17:34.812Z,3.38
2022-07-29T04:20:01.696Z,3.75
2022-07-29T04:22:28.592Z,3.50
2022-07-29T04:24:58.010Z,3.50
2022-07-29T04:27:27.338Z,3.65
2022-07-29T04:29:56.563Z,3.50
2022-07-29T04:32:24.538Z,3.72
2022-07-29T04:34:51.609Z,3.63
2022-07-29T04:37:18.493Z,3.83
2022-07-29T04:39:45.385Z,3.83
2022-07-29T04:42:12.281Z,3.55
2022-07-29T04:44:41.545Z,3.42
2022-07-29T04:47:10.503Z,3.95
2022-07-29T04:49:40.322Z,3.70
2022-07-29T04:52:07.751Z,3.83
2022-07-29T04:54:34.717Z,3.53
2022-07-29T04:57:01.654Z,3.20
2022-07-29T04:59:29.211Z,3.50
2022-07-29T05:01:56.166Z,3.63
2022-07-29T05:04:24.018Z,3.72
2022-07-29T05:06:50.930Z,3.63
2022-07-29T05:09:17.876Z,3.80
2022-07-29T05:11:44.949Z,3.45
2022-07-29T05:14:11.879Z,3.28
2022-07-29T05:16:40.521Z,3.72
2022-07-29T05:19:12.248Z,3.30
2022-07-29T05:21:41.213Z,2.80
2022-07-29T05:24:08.136Z,2.80
2022-07-29T05:26:35.131Z,2.80
2022-07-29T05:29:02.027Z,2.80
2022-07-29T05:31:28.944Z,2.90
2022-07-29T05:33:55.844Z,2.75
2022-07-29T05:36:22.741Z,3.17
2022-07-29T05:38:49.655Z,3.03
2022-07-29T05:41:16.547Z,3.17
2022-07-29T05:43:43.466Z,2.78
2022-07-29T05:46:10.439Z,2.75
2022-07-29T05:48:37.633Z,3.03
2022-07-29T05:51:04.719Z,3.05
2022-07-29T05:53:31.586Z,2.88
2022-07-29T05:55:58.711Z,2.55
2022-07-29T05:58:25.600Z,2.78
2022-07-29T06:00:52.525Z,2.75
2022-07-29T06:03:19.376Z,3.00
2022-07-29T06:05:46.257Z,2.50
2022-07-29T06:08:13.143Z,2.40
2022-07-29T06:10:40.000Z,1.75
2022-07-29T06:13:07.280Z,2.00
2022-07-29T06:15:34.514Z,2.40
2022-07-29T06:18:02.297Z,2.15
2022-07-29T06:20:32.968Z,2.38
2022-07-29T06:23:00.901Z,2.40
2022-07-29T06:25:31.357Z,2.30
2022-07-29T06:27:59.207Z,2.72
2022-07-29T06:30:26.223Z,2.22
2022-07-29T06:32:53.453Z,2.28
2022-07-29T06:35:38.765Z,2.38
2022-07-29T06:38:13.783Z,2.38
2022-07-29T06:41:11.207Z,2.40
2022-07-29T06:43:50.096Z,1.98
2022-07-29T06:46:19.215Z,2.40
2022-07-29T06:48:46.917Z,2.25
2022-07-29T06:51:14.244Z,2.10
2022-07-29T06:53:59.701Z,2.40
2022-07-29T06:56:28.746Z,2.00
2022-07-29T06:58:55.609Z,2.35
2022-07-29T07:01:23.261Z,2.20
2022-07-29T07:03:50.214Z,2.50
2022-07-29T07:06:17.389Z,2.53
2022-07-29T07:08:44.761Z,2.70
2022-07-29T07:11:12.371Z,2.10
2022-07-29T07:13:39.700Z,2.70
2022-07-29T07:16:06.947Z,2.83
2022-07-29T07:18:34.124Z,1.77
2022-07-29T07:21:01.054Z,2.20
2022-07-29T07:23:28.011Z,1.95
2022-07-29T07:25:54.955Z,2.20
2022-07-29T07:28:24.820Z,1.80
2022-07-29T07:30:52.965Z,2.03
2022-07-29T07:33:20.135Z,1.70
2022-07-29T07:35:47.129Z,2.53
2022-07-29T07:38:14.268Z,2.20
2022-07-29T07:40:41.700Z,2.17
2022-07-29T07:43:08.569Z,2.10
2022-07-29T07:45:38.112Z,2.30
2022-07-29T07:48:05.939Z,2.15
2022-07-29T07:50:35.120Z,2.17
2022-07-29T07:53:03.177Z,2.38
2022-07-29T07:55:42.451Z,2.00
2022-07-29T07:58:17.098Z,2.17
2022-07-29T08:00:44.574Z,2.20
2022-07-29T08:03:16.945Z,2.40
2022-07-29T08:05:45.912Z,1.70
2022-07-29T08:08:12.813Z,1.80
2022-07-29T08:11:02.201Z,2.20
2022-07-29T08:13:32.964Z,2.00
2022-07-29T08:16:12.075Z,2.03
2022-07-29T08:18:40.263Z,2.13
2022-07-29T08:21:07.451Z,2.03
2022-07-29T08:23:46.143Z,1.88
2022-07-29T08:26:16.430Z,1.90
2022-07-29T08:28:46.819Z,1.98
2022-07-29T08:31:15.299Z,1.88
2022-07-29T08:33:42.744Z,1.80
2022-07-29T08:36:10.120Z,1.90
2022-07-29T08:38:37.238Z,2.03
2022-07-29T08:41:04.595Z,2.20
2022-07-29T08:43:32.052Z,1.90
2022-07-29T08:45:59.338Z,2.10
2022-07-29T08:48:26.366Z,1.60
2022-07-29T08:50:56.861Z,1.90
2022-07-29T08:53:27.797Z,1.83
2022-07-29T08:55:55.712Z,1.67
2022-07-29T08:58:24.767Z,2.00
2022-07-29T09:00:58.110Z,2.13
2022-07-29T09:03:28.393Z,1.83
2022-07-29T09:05:55.427Z,1.83
2022-07-29T09:08:22.974Z,1.67
2022-07-29T09:10:50.311Z,1.98
2022-07-29T09:13:17.268Z,1.90
2022-07-29T09:15:44.791Z,1.70
2022-07-29T09:18:19.789Z,1.92
2022-07-29T09:21:15.916Z,1.73
2022-07-29T09:24:00.125Z,1.70
2022-07-29T09:26:30.869Z,1.70
2022-07-29T09:28:58.939Z,1.80
2022-07-29T09:31:46.407Z,1.63
2022-07-29T09:34:15.006Z,1.80
2022-07-29T09:36:42.737Z,2.00
2022-07-29T09:39:09.813Z,1.80
2022-07-29T09:41:56.898Z,1.58
2022-07-29T09:44:25.138Z,1.80
2022-07-29T09:47:07.070Z,1.65
2022-07-29T09:49:35.927Z,1.50
2022-07-29T09:52:07.227Z,1.80
2022-07-29T09:54:40.579Z,1.60
2022-07-29T09:57:13.363Z,1.30
2022-07-29T09:59:50.111Z,1.88
2022-07-29T10:02:23.567Z,1.48
2022-07-29T10:04:50.929Z,1.60
2022-07-29T10:07:17.855Z,1.55
2022-07-29T10:09:55.691Z,1.73
2022-07-29T10:12:22.941Z,1.60
2022-07-29T10:14:50.940Z,1.85
2022-07-29T10:17:20.061Z,2.75
2022-07-29T10:19:48.186Z,2.50
2022-07-29T10:22:15.147Z,2.28
2022-07-29T10:24:42.120Z,1.98
2022-07-29T10:27:10.004Z,2.00
2022-07-29T10:29:37.336Z,2.53
2022-07-29T10:32:13.945Z,1.80
2022-07-29T10:35:21.937Z,2.10
2022-07-29T10:37:59.422Z,1.90
2022-07-29T10:41:25.583Z,1.73
2022-07-29T10:43:59.552Z,1.58
2022-07-29T10:46:27.480Z,1.73
2022-07-29T10:49:16.149Z,2.00
2022-07-29T10:52:02.295Z,1.90
2022-07-29T10:54:36.674Z,2.08
2022-07-29T10:57:25.976Z,1.75
2022-07-29T11:00:09.984Z,1.33
2022-07-29T11:02:46.744Z,1.58
2022-07-29T11:05:21.825Z,1.65
2022-07-29T11:08:20.052Z,2.05
2022-07-29T11:10:49.344Z,1.98
2022-07-29T11:14:02.144Z,1.80
2022-07-29T11:17:05.821Z,1.75
2022-07-29T11:19:34.461Z,1.90
2022-07-29T11:22:03.081Z,1.95
2022-07-29T11:24:33.188Z,1.73
2022-07-29T11:27:20.702Z,1.90
2022-07-29T11:29:54.949Z,1.85
2022-07-29T11:35:17.116Z,2.15
2022-07-29T11:37:52.484Z,1.77
2022-07-29T11:40:24.985Z,1.60
2022-07-29T11:42:52.908Z,1.73
2022-07-29T11:45:43.190Z,1.67
2022-07-29T11:48:29.972Z,3.03
2022-07-29T11:50:59.485Z,6.88
2022-07-29T11:53:28.965Z,1.70
2022-07-29T11:56:00.761Z,1.85
2022-07-29T11:58:29.459Z,2.00
2022-07-29T12:00:57.880Z,1.70
2022-07-29T12:03:32.919Z,1.52
2022-07-29T12:06:03.615Z,1.75
2022-07-29T12:08:31.277Z,1.65
2022-07-29T12:10:58.381Z,1.88
2022-07-29T12:13:37.187Z,3.58
2022-07-29T12:16:05.523Z,1.75
2022-07-29T12:18:33.231Z,1.70
2022-07-29T12:21:04.855Z,1.63
2022-07-29T12:23:35.575Z,1.77
2022-07-29T12:26:07.456Z,1.50
2022-07-29T12:28:40.550Z,1.58
2022-07-29T12:31:15.125Z,1.60
2022-07-29T12:34:02.602Z,1.50
2022-07-29T12:36:29.677Z,2.08
2022-07-29T12:38:56.654Z,2.17
2022-07-29T12:41:23.605Z,1.40
2022-07-29T12:43:57.193Z,1.70
2022-07-29T12:46:24.209Z,1.60
2022-07-29T12:48:59.714Z,1.70
2022-07-29T12:51:30.958Z,1.85
2022-07-29T12:54:11.752Z,1.60
2022-07-29T12:56:44.359Z,1.90
2022-07-29T12:59:23.480Z,1.90
2022-07-29T13:01:53.808Z,1.85
2022-07-29T13:04:32.018Z,1.48
2022-07-29T13:07:04.512Z,1.88
2022-07-29T13:09:48.444Z,1.80
2022-07-29T13:12:16.264Z,1.70
2022-07-29T13:14:50.848Z,1.80
2022-07-29T13:17:24.105Z,1.80
2022-07-29T13:20:06.014Z,1.50
2022-07-29T13:22:35.805Z,2.22
2022-07-29T13:25:03.609Z,1.70
2022-07-29T13:27:33.826Z,2.28
2022-07-29T13:30:02.663Z,1.95
2022-07-29T13:32:31.005Z,1.48
2022-07-29T13:35:00.454Z,2.00
2022-07-29T13:37:30.972Z,1.35
2022-07-29T13:39:58.321Z,1.83
2022-07-29T13:42:25.986Z,1.30
2022-07-29T13:44:53.102Z,1.50
2022-07-29T13:47:32.788Z,1.80
2022-07-29T13:50:06.105Z,1.63
2022-07-29T13:52:34.404Z,1.77
2022-07-29T13:55:01.466Z,1.48
2022-07-29T13:57:28.843Z,1.48
2022-07-29T13:59:55.903Z,1.48
2022-07-29T14:02:25.504Z,1.20
2022-07-29T14:04:54.577Z,1.50
2022-07-29T14:07:22.052Z,1.85
2022-07-29T14:09:48.920Z,1.48
2022-07-29T14:12:15.868Z,1.65
2022-07-29T14:14:43.140Z,1.45
2022-07-29T14:17:10.573Z,1.58
2022-07-29T14:19:39.118Z,1.50
2022-07-29T14:22:08.561Z,1.50
2022-07-29T14:24:39.851Z,1.73
2022-07-29T14:27:07.988Z,1.90
2022-07-29T14:29:38.062Z,2.72
2022-07-29T14:32:07.533Z,1.98
2022-07-29T14:34:35.416Z,2.30
2022-07-29T14:37:03.849Z,2.22
2022-07-29T14:39:31.948Z,1.63
2022-07-29T14:41:59.902Z,1.80
2022-07-29T14:44:32.170Z,1.95
2022-07-29T14:47:07.815Z,1.73
2022-07-29T14:49:35.430Z,1.50
2022-07-29T14:52:02.277Z,1.50
2022-07-29T14:54:29.287Z,1.65
2022-07-29T14:56:58.421Z,1.77
2022-07-29T14:59:26.141Z,1.40
2022-07-29T15:01:54.736Z,1.60
2022-07-29T15:04:21.792Z,1.80
2022-07-29T15:06:48.983Z,1.90
2022-07-29T15:09:15.898Z,1.60
2022-07-29T15:11:42.843Z,1.75
2022-07-29T15:14:09.747Z,2.13
2022-07-29T15:16:43.554Z,1.70
2022-07-29T15:19:11.682Z,1.70
2022-07-29T15:21:48.044Z,1.10
2022-07-29T15:24:16.595Z,1.77
2022-07-29T15:26:44.360Z,1.50
2022-07-29T15:29:11.369Z,1.50
2022-07-29T15:31:38.509Z,1.65
2022-07-29T15:34:06.533Z,1.42
2022-07-29T15:39:22.326Z,1.70
2022-07-29T15:41:49.574Z,1.58
2022-07-29T15:44:16.456Z,1.60
2022-07-29T15:47:02.211Z,1.70
2022-07-29T15:49:48.700Z,1.58
2022-07-29T15:52:25.345Z,1.60
2022-07-29T15:54:56.989Z,1.85
2022-07-29T15:57:24.785Z,1.70
2022-07-29T15:59:52.082Z,1.58
2022-07-29T16:02:19.662Z,1.42
2022-07-29T16:04:47.287Z,1.90
2022-07-29T16:07:15.184Z,1.88
2022-07-29T16:09:42.813Z,1.48
2022-07-29T16:12:14.788Z,1.90
2022-07-29T16:14:42.167Z,1.60
2022-07-29T16:17:09.093Z,1.50
2022-07-29T16:19:41.212Z,1.50
2022-07-29T16:22:08.073Z,1.60
2022-07-29T16:24:34.996Z,1.20
2022-07-29T16:27:02.212Z,1.65
2022-07-29T16:29:29.405Z,1.55
2022-07-29T16:31:56.411Z,1.48
2022-07-29T16:34:23.395Z,1.88
2022-07-29T16:36:50.267Z,1.65
2022-07-29T16:39:17.105Z,1.52
2022-07-29T16:41:44.001Z,1.52
2022-07-29T16:44:10.860Z,1.60
2022-07-29T16:46:39.024Z,1.65
2022-07-29T16:49:08.491Z,1.58
2022-07-29T16:51:35.432Z,1.55
2022-07-29T16:54:02.295Z,1.60
2022-07-29T16:56:29.176Z,1.40
2022-07-29T16:58:58.455Z,2.00
2022-07-29T17:01:25.437Z,1.63
2022-07-29T17:04:07.514Z,1.90
2022-07-29T17:06:39.765Z,1.90
2022-07-29T17:09:11.416Z,1.60
2022-07-29T17:11:53.989Z,1.70
2022-07-29T17:14:25.040Z,1.60
2022-07-29T17:17:01.245Z,1.95
2022-07-29T17:19:34.233Z,1.60
2022-07-29T17:22:11.590Z,1.50
2022-07-29T17:24:41.413Z,1.50
2022-07-29T17:27:09.729Z,1.35
2022-07-29T17:29:36.758Z,1.38
2022-07-29T17:32:04.120Z,1.23
2022-07-29T17:34:35.192Z,1.50
2022-07-29T17:37:02.284Z,1.38
2022-07-29T17:39:29.270Z,1.70
2022-07-29T17:41:56.219Z,1.60
2022-07-29T17:44:23.112Z,1.60
2022-07-29T17:46:49.998Z,1.40
2022-07-29T17:49:17.081Z,1.33
2022-07-29T17:51:44.139Z,1.48
2022-07-29T17:54:11.214Z,1.40
2022-07-29T17:56:38.280Z,1.52
2022-07-29T17:59:08.512Z,1.40
2022-07-29T18:01:36.360Z,1.15
2022-07-29T18:04:03.475Z,1.40
2022-07-29T18:06:30.364Z,1.48
2022-07-29T18:08:57.392Z,1.30
2022-07-29T18:11:24.477Z,1.45
2022-07-29T18:13:51.396Z,1.25
2022-07-29T18:16:18.981Z,1.98
2022-07-29T18:18:46.180Z,1.20
2022-07-29T18:21:13.351Z,1.40
2022-07-29T18:23:40.740Z,1.27
2022-07-29T18:26:07.634Z,1.42
2022-07-29T18:28:34.604Z,1.63
2022-07-29T18:31:02.472Z,1.45
2022-07-29T18:33:29.626Z,1.20
2022-07-29T18:36:10.023Z,1.40
2022-07-29T18:38:37.853Z,1.15
2022-07-29T18:41:04.713Z,1.55
2022-07-29T18:43:31.587Z,1.35
2022-07-29T18:45:58.659Z,1.35
2022-07-29T18:48:25.547Z,1.65
2022-07-29T18:50:52.464Z,1.33
2022-07-29T18:53:19.375Z,1.35
2022-07-29T18:55:46.366Z,1.58
2022-07-29T18:58:13.254Z,1.63
2022-07-29T19:00:40.215Z,1.40
2022-07-29T19:03:08.601Z,1.45
2022-07-29T19:05:35.656Z,1.30
2022-07-29T19:08:02.606Z,1.40
2022-07-29T19:10:29.850Z,1.20
2022-07-29T19:12:57.970Z,1.48
2022-07-29T19:15:25.172Z,1.50
2022-07-29T19:17:52.213Z,1.80
2022-07-29T19:20:19.132Z,1.45
2022-07-29T19:22:46.105Z,1.70
2022-07-29T19:25:13.336Z,1.50
2022-07-29T19:27:42.039Z,1.40
2022-07-29T19:30:09.662Z,1.60
2022-07-29T19:32:37.344Z,1.60
2022-07-29T19:35:24.306Z,1.35
2022-07-29T19:37:52.425Z,1.50
2022-07-29T19:40:19.597Z,1.40
2022-07-29T19:42:48.306Z,1.80
2022-07-29T19:45:15.423Z,1.40
2022-07-29T19:47:42.323Z,1.38
2022-07-29T19:50:10.147Z,1.60
2022-07-29T19:52:37.097Z,1.70
2022-07-29T19:55:07.820Z,1.50
2022-07-29T19:57:40.570Z,1.45
2022-07-29T20:00:13.425Z,1.88
2022-07-29T20:02:41.699Z,1.40
2022-07-29T20:05:10.544Z,1.60
2022-07-29T20:07:38.620Z,1.92
2022-07-29T20:10:07.734Z,2.05
2022-07-29T20:12:35.893Z,1.95
2022-07-29T20:15:03.103Z,2.20
2022-07-29T20:17:30.022Z,1.98
2022-07-29T20:19:57.122Z,2.00
2022-07-29T20:22:24.036Z,2.28
2022-07-29T20:24:50.941Z,1.95
2022-07-29T20:27:18.872Z,1.90
2022-07-29T20:29:45.757Z,1.80
2022-07-29T20:32:12.685Z,1.70
2022-07-29T20:34:42.983Z,1.60
2022-07-29T20:37:11.401Z,1.67
2022-07-29T20:39:38.516Z,2.08
2022-07-29T20:42:05.983Z,1.60
2022-07-29T20:44:32.935Z,1.90
2022-07-29T20:47:00.028Z,1.80
2022-07-29T20:49:27.125Z,1.73
2022-07-29T20:51:54.034Z,1.70
2022-07-29T20:54:20.870Z,1.42
2022-07-29T20:56:47.804Z,1.90
2022-07-29T20:59:14.657Z,1.95
2022-07-29T21:01:41.529Z,1.90
2022-07-29T21:04:08.452Z,1.65
2022-07-29T21:06:35.367Z,1.48
2022-07-29T21:09:02.252Z,1.83
2022-07-29T21:11:44.670Z,1.55
2022-07-29T21:14:30.461Z,1.77
2022-07-29T21:16:57.714Z,1.85
2022-07-29T21:19:24.762Z,1.90
2022-07-29T21:21:51.627Z,1.70
2022-07-29T21:24:19.196Z,1.90
2022-07-29T21:26:50.757Z,1.52
2022-07-29T21:29:33.227Z,1.85
2022-07-29T21:32:00.319Z,1.60
2022-07-29T21:34:28.139Z,1.80
2022-07-29T21:36:54.980Z,1.48
2022-07-29T21:39:21.982Z,1.90
2022-07-29T21:41:49.152Z,1.63
2022-07-29T21:44:16.254Z,1.67
2022-07-29T21:46:43.123Z,1.60
2022-07-29T21:49:10.039Z,1.88
2022-07-29T21:51:37.063Z,1.70
2022-07-29T21:54:04.428Z,1.70
2022-07-29T21:56:31.427Z,1.98
2022-07-29T21:58:58.786Z,1.77
2022-07-29T22:01:25.742Z,1.65
2022-07-29T22:03:52.701Z,1.90
2022-07-29T22:06:19.751Z,1.40
2022-07-29T22:08:48.018Z,1.75
2022-07-29T22:11:15.023Z,1.60
2022-07-29T22:13:41.951Z,1.73
2022-07-29T22:16:10.261Z,2.00
2022-07-29T22:18:37.138Z,1.40
2022-07-29T22:21:04.468Z,1.60
2022-07-29T22:23:31.466Z,2.10
2022-07-29T22:25:58.453Z,1.98
2022-07-29T22:28:25.305Z,2.78
2022-07-29T22:30:52.191Z,2.55
2022-07-29T22:33:19.094Z,1.80
2022-07-29T22:35:48.631Z,1.77
2022-07-29T22:38:19.133Z,1.95
2022-07-29T22:40:48.577Z,1.83
2022-07-29T22:43:15.902Z,1.88
2022-07-29T22:45:42.789Z,2.03
2022-07-29T22:48:10.582Z,1.92
2022-07-29T22:50:38.443Z,2.00
2022-07-29T22:53:05.354Z,2.03
2022-07-29T22:55:32.211Z,2.30
2022-07-29T22:57:59.144Z,2.20
2022-07-29T23:00:26.209Z,1.52
2022-07-29T23:02:53.066Z,2.15
2022-07-29T23:05:20.029Z,2.30
2022-07-29T23:07:46.924Z,1.98
2022-07-29T23:10:13.839Z,2.00
2022-07-29T23:12:40.729Z,1.70
2022-07-29T23:15:07.932Z,2.28
2022-07-29T23:17:36.288Z,2.15
2022-07-29T23:20:07.888Z,1.92
2022-07-29T23:22:35.909Z,1.98
2022-07-29T23:25:02.853Z,2.90
2022-07-29T23:27:29.772Z,3.72
2022-07-29T23:29:56.648Z,2.78
2022-07-29T23:32:23.523Z,2.30
2022-07-29T23:34:50.457Z,1.92
2022-07-29T23:37:17.350Z,1.80
2022-07-29T23:39:44.202Z,2.20
2022-07-29T23:42:11.071Z,1.88
2022-07-29T23:44:37.967Z,2.00
2022-07-29T23:47:04.901Z,2.00
2022-07-29T23:49:31.835Z,2.13
2022-07-29T23:51:58.877Z,2.50
2022-07-29T23:54:25.745Z,2.03
2022-07-29T23:56:52.624Z,2.40
2022-07-29T23:59:19.806Z,2.70
